Latest Weather Observations for Amberley

IDQ60901

Issued at 5:01 am EST Tuesday 24 April 2018 (issued every 10 minutes, with the page automatically refreshed every 10 minutes)

About weather observations | Map of Brisbane area stations | Latest observations for Brisbane area | Other Formats
Station Details ID: 040004 Name: AMBERLEY AMO Lat: -27.63 Lon: 152.71 Height: 24.2 m
Data from the previous 72 hours. | See also: Recent months at Amberley
Date/Time
EST
Temp
°C
App
Temp
°C
Dew
Point
°C
Rel
Hum
%
Delta-T
°C
Wind Press
QNH
hPa
Press
MSL
hPa
Rain since
9am
mm
Dir  Spd
km/h
Gust
km/h
Spd
kts
Gust
kts
24/05:00am 12.4 12.6 12.0 97 0.2 SW 2 7 1 4 1015.3 1015.2 0.0
24/04:30am 12.7 13.3 12.0 95 0.4 CALM 0 6 0 3 1015.1 1015.0 0.0
24/04:00am 13.2 12.2 12.3 94 0.5 SW 9 11 5 6 1014.9 1014.8 0.0
24/03:30am 12.6 11.5 11.8 95 0.4 NW 9 9 5 5 1014.9 1014.8 0.0
24/03:00am 13.3 14.1 12.6 95 0.4 CALM 0 0 0 0 1014.9 1014.8 0.0
24/02:30am 13.1 13.9 12.4 95 0.4 CALM 0 0 0 0 1015.1 1015.0 0.0
24/02:00am 13.6 13.3 12.7 94 0.5 SW 6 9 3 5 1015.3 1015.2 0.0
24/01:30am 13.6 14.4 12.7 94 0.5 CALM 0 0 0 0 1015.5 1015.4 0.0
24/01:00am 13.4 13.8 12.5 94 0.5 SW 2 7 1 4 1015.7 1015.6 0.0
24/12:30am 13.9 14.0 12.6 92 0.7 WSW 4 11 2 6 1015.8 1015.7 0.0
24/12:00am 13.5 13.2 12.6 94 0.5 SSW 6 7 3 4 1015.9 1015.8 0.0
 
Date/Time
EST
Temp
°C
App
Temp
°C
Dew
Point
°C
Rel
Hum
%
Delta-T
°C
Wind Press
QNH
hPa
Press
MSL
hPa
Rain since
9am
mm
Dir  Spd
km/h
Gust
km/h
Spd
kts
Gust
kts
23/11:30pm 14.3 14.6 13.4 94 0.5 SSW 4 7 2 4 1016.2 1016.1 0.0
23/11:00pm 15.0 16.2 13.9 93 0.6 CALM 0 0 0 0 1016.5 1016.4 0.0
23/10:30pm 14.8 15.5 13.5 92 0.7 SSW 2 7 1 4 1016.6 1016.5 0.0
23/10:00pm 16.2 16.0 14.8 91 0.8 SSW 9 9 5 5 1017.0 1016.9 0.0
23/09:30pm 16.3 18.0 15.1 93 0.7 CALM 0 0 0 0 1017.0 1016.9 0.0
23/09:00pm 16.7 18.1 14.4 86 1.3 CALM 0 2 0 1 1017.0 1016.9 0.0
23/08:30pm 18.2 19.8 14.9 81 1.9 CALM 0 0 0 0 1016.8 1016.7 0.0
23/08:00pm 19.1 18.7 14.1 73 2.9 SSW 9 9 5 5 1016.8 1016.7 0.0
23/07:30pm 19.7 19.3 14.2 70 3.2 S 9 11 5 6 1016.6 1016.5 0.0
23/07:00pm 19.9 21.2 16.1 79 2.3 S 4 9 2 5 1016.2 1016.1 0.0
23/06:30pm 21.1 23.1 16.1 73 3.0 CALM 0 0 0 0 1015.9 1015.8 0.0
23/06:00pm 22.0 23.5 15.7 67 3.8 E 2 7 1 4 1015.6 1015.5 0.0
23/05:30pm 22.9 22.3 13.6 55 5.4 SE 9 11 5 6 1015.2 1015.1 0.0
23/05:00pm 24.4 22.9 13.0 49 6.6 SSE 13 17 7 9 1014.5 1014.4 0.0
23/04:30pm 25.3 23.2 12.5 45 7.4 SSE 15 19 8 10 1014.2 1014.1 0.0
23/04:00pm 25.8 23.2 12.0 42 7.9 S 17 24 9 13 1014.0 1013.9 0.0
23/03:30pm 26.4 23.6 12.6 42 8.0 SSE 19 26 10 14 1013.9 1013.8 0.0
23/03:00pm 26.3 23.2 12.3 41 8.1 SSE 20 28 11 15 1013.9 1013.8 0.0
23/02:30pm 26.3 23.1 13.1 44 7.7 S 22 32 12 17 1014.0 1013.9 0.0
23/02:00pm 26.8 24.1 13.6 44 7.8 S 20 30 11 16 1014.1 1014.0 0.0
23/01:30pm 26.4 22.5 13.3 44 7.7 SSE 26 32 14 17 1014.1 1014.0 0.0
23/01:00pm 25.6 22.1 13.5 47 7.1 S 24 35 13 19 1014.3 1014.2 0.0
23/12:30pm 26.8 24.3 14.2 46 7.5 S 20 37 11 20 1014.6 1014.5 0.0
23/12:00pm 26.2 23.0 13.2 44 7.6 SSE 22 35 12 19 1015.0 1014.9 0.0
23/11:30am 25.8 22.5 14.0 48 7.0 SSE 24 35 13 19 1015.5 1015.4 0.0
23/11:00am 25.0 21.5 13.3 48 6.8 S 24 35 13 19 1016.0 1015.9 0.0
23/10:30am 25.1 21.5 13.0 47 7.0 S 24 33 13 18 1016.4 1016.3 0.0
23/10:00am 24.6 19.6 13.5 50 6.5 S 32 39 17 21 1016.6 1016.5 0.0
23/09:30am 22.8 21.4 14.5 59 4.9 SW 15 22 8 12 1017.0 1016.9 0.0
23/09:00am 21.8 20.5 14.7 64 4.2 S 15 20 8 11 1017.2 1017.1 0.0
23/08:30am 20.5 20.6 15.4 72 3.0 SW 9 17 5 9 1017.4 1017.3 0.0
23/08:00am 18.1 18.3 14.8 81 1.9 WSW 7 11 4 6 1017.3 1017.2 0.0
23/07:30am 16.0 15.6 14.2 89 1.0 NW 9 11 5 6 1017.1 1017.0 0.0
23/07:00am 14.0 15.0 13.1 94 0.5 CALM 0 0 0 0 1017.0 1016.9 0.0
23/06:30am 12.5 13.1 11.9 96 0.3 CALM 0 0 0 0 1016.8 1016.7 0.0
23/06:00am 11.8 12.3 11.6 99 0.1 CALM 0 0 0 0 1016.2 1016.1 0.0
23/05:30am 12.4 12.9 11.6 95 0.4 CALM 0 0 0 0 1016.0 1015.9 0.0
23/05:00am 11.4 11.7 11.0 97 0.2 CALM 0 0 0 0 1016.0 1015.9 0.0
23/04:30am 11.6 11.2 11.0 96 0.3 WNW 4 7 2 4 1016.0 1015.9 0.0
23/04:00am 12.6 13.2 12.0 96 0.3 CALM 0 0 0 0 1015.9 1015.8 0.0
23/03:30am 12.5 13.1 11.9 96 0.3 CALM 0 0 0 0 1015.8 1015.7 0.0
23/03:00am 12.4 12.2 11.8 96 0.3 NW 4 9 2 5 1016.0 1015.9 0.0
23/02:30am 13.9 14.0 12.8 93 0.6 NW 4 9 2 5 1016.2 1016.1 0.0
23/02:00am 13.1 12.1 12.4 95 0.4 NW 9 11 5 6 1016.2 1016.1 0.0
23/01:30am 13.4 13.0 12.9 97 0.3 NW 7 9 4 5 1016.5 1016.4 0.0
23/01:00am 14.1 15.0 13.0 93 0.6 CALM 0 0 0 0 1016.8 1016.7 0.0
23/12:30am 14.1 13.6 12.8 92 0.7 NW 7 13 4 7 1017.0 1016.9 0.0
23/12:00am 15.0 14.6 13.0 88 1.1 SW 7 9 4 5 1017.3 1017.2 0.0
 
Date/Time
EST
Temp
°C
App
Temp
°C
Dew
Point
°C
Rel
Hum
%
Delta-T
°C
Wind Press
QNH
hPa
Press
MSL
hPa
Rain since
9am
mm
Dir  Spd
km/h
Gust
km/h
Spd
kts
Gust
kts
22/11:30pm 14.8 15.7 13.0 89 1.0 CALM 0 0 0 0 1017.7 1017.6 0.0
22/11:00pm 16.1 17.4 14.0 87 1.2 CALM 0 6 0 3 1017.8 1017.7 0.0
22/10:30pm 16.5 16.0 13.8 84 1.5 S 9 11 5 6 1017.8 1017.7 0.0
22/10:00pm 17.0 16.9 13.8 81 1.8 S 7 9 4 5 1018.1 1018.0 0.0
22/09:30pm 18.3 17.1 13.9 75 2.5 SW 13 13 7 7 1018.1 1018.0 0.0
22/09:00pm 18.5 17.5 14.5 77 2.3 SSW 13 17 7 9 1018.1 1018.0 0.0
22/08:30pm 17.6 18.7 14.7 83 1.7 S 2 9 1 5 1018.1 1018.0 0.0
22/08:00pm 17.8 19.4 14.9 83 1.7 CALM 0 4 0 2 1018.0 1017.9 0.0
22/07:30pm 18.7 19.2 14.9 78 2.2 SSE 6 7 3 4 1017.6 1017.5 0.0
22/07:00pm 19.4 19.9 15.0 75 2.6 S 6 7 3 4 1017.4 1017.3 0.0
22/06:30pm 19.6 18.9 14.4 72 3.0 S 11 13 6 7 1017.1 1017.0 0.0
22/06:00pm 20.6 19.5 14.2 66 3.7 SSE 13 15 7 8 1016.8 1016.7 0.0
22/05:30pm 22.4 20.4 14.0 59 4.9 S 17 22 9 12 1016.7 1016.6 0.0
22/05:00pm 24.4 22.4 13.8 51 6.2 SSE 17 26 9 14 1016.4 1016.3 0.0
22/04:30pm 24.7 22.2 13.6 50 6.5 S 19 26 10 14 1016.2 1016.1 0.0
22/04:00pm 25.5 23.5 13.8 48 6.9 SSE 17 20 9 11 1015.8 1015.7 0.0
22/03:30pm 25.5 24.4 14.2 49 6.7 S 13 20 7 11 1015.7 1015.6 0.0
22/03:00pm 25.1 23.4 13.7 49 6.7 S 15 24 8 13 1015.7 1015.6 0.0
22/02:30pm 25.9 24.2 13.7 47 7.2 SSE 15 20 8 11 1015.8 1015.7 0.0
22/02:00pm 25.0 22.9 14.8 53 6.1 S 19 28 10 15 1016.0 1015.9 0.0
22/01:30pm 24.7 22.3 13.8 50 6.4 SE 19 33 10 18 1016.2 1016.1 0.0
22/01:00pm 25.1 24.0 14.3 51 6.4 ESE 13 20 7 11 1016.4 1016.3 0.0
22/12:30pm 24.4 22.3 14.6 54 5.8 SSE 19 30 10 16 1016.9 1016.8 0.0
22/12:00pm 24.5 22.2 14.6 54 5.9 S 20 28 11 15 1017.1 1017.0 0.0
22/11:30am 25.8 23.7 14.8 50 6.6 SSE 19 26 10 14 1017.4 1017.3 0.0
22/11:00am 25.1 22.8 14.7 52 6.2 S 20 30 11 16 1017.8 1017.7 0.0
22/10:30am 24.1 21.8 14.7 55 5.6 SSE 20 30 11 16 1018.3 1018.2 0.0
22/10:00am 25.5 23.6 15.2 53 6.2 SSE 19 30 10 16 1018.5 1018.4 0.0
22/09:30am 23.1 19.1 14.2 57 5.2 SSE 28 35 15 19 1018.7 1018.6 0.0
22/09:00am 22.9 20.7 14.8 60 4.8 S 20 35 11 19 1018.6 1018.5 3.2
22/08:30am 21.2 20.8 16.2 73 3.0 SSW 13 19 7 10 1018.5 1018.4 3.2
22/08:00am 19.5 21.6 16.3 82 1.9 CALM 0 0 0 0 1018.4 1018.3 3.2
22/07:30am 16.9 18.6 15.2 90 1.0 CALM 0 0 0 0 1018.3 1018.2 3.2
22/07:00am 15.5 17.0 14.6 94 0.5 CALM 0 6 0 3 1017.9 1017.8 3.0
22/06:30am 13.5 12.7 13.0 97 0.3 NW 9 11 5 6 1017.7 1017.6 3.0
22/06:00am 13.7 14.3 13.0 96 0.4 NW 2 9 1 5 1017.5 1017.4 3.0
22/05:30am 13.5 13.2 12.8 95 0.4 WNW 6 7 3 4 1017.2 1017.1 3.0
22/05:00am 13.7 14.0 13.3 97 0.2 NNW 4 7 2 4 1017.3 1017.2 3.0
22/04:30am 13.7 14.7 13.2 97 0.3 CALM 0 0 0 0 1017.2 1017.1 3.0
22/04:11am 13.5 13.3 13.1 97 0.2 NW 6 7 3 4 1017.1 1017.0 3.0
22/04:00am 13.5 14.5 13.1 97 0.2 CALM 0 0 0 0 1017.2 1017.1 3.0
22/03:40am 13.5 14.4 13.0 97 0.3 CALM 0 0 0 0 1017.2 1017.1 3.0
22/03:36am 13.5 14.4 13.0 97 0.3 CALM 0 0 0 0 1017.1 1017.0 3.0
22/03:30am 13.8 14.9 13.4 97 0.2 CALM 0 0 0 0 1017.1 1017.0 3.0
22/03:12am 13.9 15.0 13.5 97 0.2 CALM 0 0 0 0 1017.1 1017.0 3.0
22/03:00am 14.0 15.1 13.6 97 0.2 CALM 0 0 0 0 1017.3 1017.2 3.0
22/02:33am 13.9 15.0 13.4 97 0.3 CALM 0 0 0 0 1017.3 1017.2 3.0
22/02:30am 13.8 14.8 13.1 96 0.4 CALM 0 0 0 0 1017.3 1017.2 3.0
22/02:10am 14.0 15.1 13.6 97 0.2 CALM 0 0 0 0 1017.5 1017.4 3.0
22/02:00am 14.1 15.3 13.7 97 0.2 CALM 0 0 0 0 1017.6 1017.5 3.0
22/01:30am 14.4 15.7 14.0 97 0.2 CALM 0 0 0 0 1017.8 1017.7 3.0
22/01:00am 14.5 15.8 14.0 97 0.3 CALM 0 0 0 0 1018.0 1017.9 3.0
22/12:30am 14.8 16.2 14.4 97 0.2 CALM 0 0 0 0 1018.0 1017.9 3.0
22/12:00am 14.7 16.0 14.2 97 0.3 CALM 0 0 0 0 1018.3 1018.2 3.0
 
Date/Time
EST
Temp
°C
App
Temp
°C
Dew
Point
°C
Rel
Hum
%
Delta-T
°C
Wind Press
QNH
hPa
Press
MSL
hPa
Rain since
9am
mm
Dir  Spd
km/h
Gust
km/h
Spd
kts
Gust
kts
21/11:30pm 14.8 16.2 14.4 97 0.2 CALM 0 0 0 0 1018.2 1018.1 3.0
21/11:00pm 15.2 16.7 14.7 97 0.3 CALM 0 6 0 3 1018.3 1018.2 3.0
21/10:30pm 15.8 15.8 15.1 96 0.4 SW 9 9 5 5 1018.3 1018.2 3.0
21/10:00pm 15.9 17.5 15.0 94 0.5 CALM 0 0 0 0 1018.6 1018.5 3.0
21/09:30pm 16.6 18.2 15.0 90 0.9 CALM 0 0 0 0 1018.7 1018.6 3.0
21/09:00pm 16.1 15.9 14.7 91 0.8 SW 9 11 5 6 1018.4 1018.3 3.0
21/08:30pm 17.4 16.9 14.8 85 1.5 SSW 11 13 6 7 1018.3 1018.2 3.0
21/08:00pm 17.7 18.0 14.9 84 1.6 SSW 7 13 4 7 1018.2 1018.1 3.0
21/07:30pm 18.3 20.1 17.5 95 0.5 SW 4 11 2 6 1018.0 1017.9 3.0
21/07:00pm 19.1 21.0 17.6 91 0.9 SW 4 7 2 4 1017.9 1017.8 3.0
21/06:30pm 20.0 21.1 17.9 88 1.3 SW 9 13 5 7 1017.8 1017.7 3.0
21/06:00pm 20.7 23.4 17.8 83 1.8 CALM 0 0 0 0 1017.5 1017.4 3.0
21/05:30pm 21.7 24.4 17.8 78 2.4 CALM 0 0 0 0 1017.1 1017.0 3.0
21/05:00pm 22.0 23.6 18.3 79 2.3 NE 7 9 4 5 1016.9 1016.8 3.0
21/04:30pm 22.5 25.7 18.9 80 2.3 CALM 0 0 0 0 1016.5 1016.4 3.0
21/04:00pm 23.2 23.6 16.3 65 4.2 WNW 9 15 5 8 1016.4 1016.3 3.0
21/03:30pm 24.0 23.5 16.8 64 4.4 NE 15 19 8 10 1016.0 1015.9 3.0
21/03:00pm 25.3 23.3 15.0 53 6.2 E 19 28 10 15 1016.0 1015.9 3.0
21/02:30pm 23.9 24.4 17.5 67 4.0 E 11 17 6 9 1015.9 1015.8 3.0
21/02:00pm 22.0 21.4 17.5 75 2.8 ENE 17 22 9 12 1016.2 1016.1 3.0
21/01:30pm 22.9 22.4 17.8 73 3.2 NE 17 32 9 17 1016.1 1016.0 2.2
21/01:00pm 24.4 25.1 18.0 67 4.0 E 11 15 6 8 1016.1 1016.0 1.8
21/12:30pm 23.8 25.9 18.1 70 3.6 WNW 4 7 2 4 1016.7 1016.6 1.8
21/12:00pm 21.8 23.2 18.6 82 2.0 N 9 11 5 6 1017.2 1017.1 1.6
21/11:30am 24.4 23.1 15.8 58 5.2 S 17 20 9 11 1017.7 1017.6 0.0
21/11:00am 26.0 24.8 16.0 54 6.1 S 17 24 9 13 1018.1 1018.0 0.0
21/10:30am 25.1 25.5 17.2 61 4.9 SSE 11 17 6 9 1018.5 1018.4 0.0
21/10:00am 23.4 24.2 18.1 72 3.3 SSE 11 17 6 9 1018.7 1018.6 0.0
21/09:30am 22.3 23.9 17.8 75 2.8 SSE 6 11 3 6 1019.0 1018.9 0.0
21/09:00am 20.9 22.5 17.8 82 1.9 SW 6 11 3 6 1019.3 1019.2 7.2
21/08:30am 19.5 22.0 17.2 86 1.4 CALM 0 0 0 0 1019.3 1019.2 7.2
21/08:02am 17.8 20.2 17.0 95 0.5 CALM 0 0 0 0 1019.2 1019.1 7.2
21/08:00am 17.7 20.2 17.2 97 0.3 CALM 0 0 0 0 1019.2 1019.1 7.2
21/07:46am 16.8 19.0 16.5 98 0.2 CALM 0 0 0 0 1019.1 1019.0 7.2
21/07:30am 16.5 18.6 16.2 98 0.2 CALM 0 0 0 0 1018.9 1018.8 7.2
21/07:00am 15.0 16.5 14.6 97 0.2 CALM 0 0 0 0 1018.6 1018.5 7.2
21/06:30am 14.2 15.5 14.0 99 0.1 CALM 0 0 0 0 1018.4 1018.3 7.2
21/06:00am 14.8 16.2 14.4 97 0.2 CALM 0 0 0 0 1018.1 1018.0 7.2
21/05:30am 15.0 16.6 14.8 99 0.1 CALM 0 0 0 0 1017.9 1017.8 7.2
21/05:06am 15.2 16.8 14.9 98 0.2 CALM 0 0 0 0 1018.0 1017.9 7.2

Latest Capital City Observations: Canberra | Sydney | Melbourne | Brisbane | Adelaide | Perth | Hobart | Darwin

Other Formats:

Comma delimited format used in spreadsheet applications
http://www.bom.gov.au/fwo/IDQ60901/IDQ60901.94568.axf

JavaScript Object Notation format (JSON) in row-major order
http://www.bom.gov.au/fwo/IDQ60901/IDQ60901.94568.json